createdAt,value
2023-08-06T00:02:08.593Z,26.32
2023-08-06T00:04:57.266Z,26.31
2023-08-06T00:07:47.282Z,26.34
2023-08-06T00:10:36.124Z,26.30
2023-08-06T00:13:24.831Z,26.35
2023-08-06T00:16:14.335Z,26.39
2023-08-06T00:19:03.648Z,26.38
2023-08-06T00:21:52.500Z,26.33
2023-08-06T00:24:42.678Z,26.33
2023-08-06T00:27:31.516Z,26.30
2023-08-06T00:30:20.354Z,26.27
2023-08-06T00:33:09.023Z,26.29
2023-08-06T00:35:57.816Z,26.32
2023-08-06T00:38:46.499Z,26.28
2023-08-06T00:41:36.654Z,26.26
2023-08-06T00:44:25.485Z,26.24
2023-08-06T00:47:14.248Z,26.25
2023-08-06T00:50:02.978Z,26.28
2023-08-06T00:52:51.719Z,26.16
2023-08-06T00:55:40.510Z,26.13
2023-08-06T00:58:30.946Z,26.13
2023-08-06T01:01:19.560Z,26.16
2023-08-06T01:04:08.409Z,26.15
2023-08-06T01:07:08.658Z,26.19
2023-08-06T01:10:10.478Z,26.17
2023-08-06T01:13:11.585Z,26.16
2023-08-06T01:16:03.271Z,26.17
2023-08-06T01:18:52.622Z,26.15
2023-08-06T01:21:42.961Z,26.18
2023-08-06T01:24:32.093Z,26.20
2023-08-06T01:27:29.469Z,26.31
2023-08-06T01:30:22.917Z,26.35
2023-08-06T01:33:19.162Z,26.40
2023-08-06T01:36:09.514Z,26.41
2023-08-06T01:39:00.381Z,26.49
2023-08-06T01:41:49.382Z,26.47
2023-08-06T01:44:38.178Z,26.38
2023-08-06T01:47:27.200Z,26.42
2023-08-06T01:50:16.404Z,26.42
2023-08-06T01:53:05.028Z,26.37
2023-08-06T01:55:55.126Z,26.42
2023-08-06T01:58:43.812Z,26.39
2023-08-06T02:01:32.504Z,26.40
2023-08-06T02:04:21.363Z,26.44
2023-08-06T02:07:09.995Z,26.37
2023-08-06T02:09:58.680Z,26.42
2023-08-06T02:12:48.704Z,26.42
2023-08-06T02:15:37.393Z,26.42
2023-08-06T02:18:26.084Z,26.39
2023-08-06T02:21:14.798Z,26.40
2023-08-06T02:24:03.427Z,26.44
2023-08-06T02:26:52.685Z,26.42
2023-08-06T02:29:44.195Z,26.39
2023-08-06T02:32:33.472Z,26.36
2023-08-06T02:35:22.155Z,26.39
2023-08-06T02:38:10.877Z,26.39
2023-08-06T02:40:59.604Z,26.37
2023-08-06T02:43:48.267Z,26.32
2023-08-06T02:46:38.319Z,26.35
2023-08-06T02:49:26.911Z,26.43
2023-08-06T02:52:15.633Z,26.40
2023-08-06T02:55:04.349Z,26.41
2023-08-06T02:57:53.061Z,26.34
2023-08-06T03:00:41.687Z,26.38
2023-08-06T03:03:32.039Z,26.40
2023-08-06T03:06:20.808Z,26.39
2023-08-06T03:09:09.399Z,26.35
2023-08-06T03:11:58.079Z,26.33
2023-08-06T03:14:46.769Z,26.32
2023-08-06T03:17:35.550Z,26.37
2023-08-06T03:20:26.230Z,26.34
2023-08-06T03:23:14.849Z,26.22
2023-08-06T03:26:04.589Z,26.10
2023-08-06T03:28:53.222Z,26.12
2023-08-06T03:31:42.313Z,26.19
2023-08-06T03:34:31.168Z,26.25
2023-08-06T03:37:21.193Z,26.34
2023-08-06T03:40:11.153Z,26.30
2023-08-06T03:42:59.841Z,26.29
2023-08-06T03:45:48.508Z,26.28
2023-08-06T03:48:37.223Z,26.28
2023-08-06T03:51:25.874Z,26.31
2023-08-06T03:54:16.018Z,26.31
2023-08-06T03:57:05.055Z,26.17
2023-08-06T03:59:55.429Z,26.23
2023-08-06T04:02:44.676Z,26.22
2023-08-06T04:05:34.594Z,26.19
2023-08-06T04:08:23.393Z,26.26
2023-08-06T04:11:14.299Z,26.23
2023-08-06T04:14:02.902Z,26.17
2023-08-06T04:16:51.539Z,26.10
2023-08-06T04:19:40.339Z,26.08
2023-08-06T04:22:28.995Z,26.10
2023-08-06T04:25:21.918Z,26.03
2023-08-06T04:28:11.968Z,26.04
2023-08-06T04:31:02.114Z,26.04
2023-08-06T04:33:50.947Z,26.07
2023-08-06T04:36:40.194Z,25.98
2023-08-06T04:39:29.317Z,26.03
2023-08-06T04:42:18.394Z,26.09
2023-08-06T04:45:10.481Z,26.16
2023-08-06T04:47:59.592Z,26.02
2023-08-06T04:50:49.506Z,26.08
2023-08-06T04:53:38.926Z,26.06
2023-08-06T04:56:28.086Z,26.17
2023-08-06T04:59:16.995Z,26.20
2023-08-06T05:02:08.047Z,26.26
2023-08-06T05:04:56.891Z,26.26
2023-08-06T05:07:45.739Z,26.21
2023-08-06T05:10:34.991Z,26.21
2023-08-06T05:13:23.926Z,26.22
2023-08-06T05:16:12.842Z,26.20
2023-08-06T05:19:03.116Z,26.20
2023-08-06T05:21:52.314Z,26.24
2023-08-06T05:24:41.574Z,26.22
2023-08-06T05:27:30.585Z,26.22
2023-08-06T05:30:19.759Z,26.18
2023-08-06T05:33:08.777Z,26.18
2023-08-06T05:35:59.360Z,26.22
2023-08-06T05:38:48.512Z,26.19
2023-08-06T05:41:37.415Z,26.16
2023-08-06T05:44:26.652Z,26.17
2023-08-06T05:47:15.496Z,26.17
2023-08-06T05:50:04.586Z,26.15
2023-08-06T05:52:55.664Z,26.18
2023-08-06T05:55:44.505Z,26.19
2023-08-06T05:58:33.562Z,26.15
2023-08-06T06:01:22.668Z,26.14
2023-08-06T06:04:11.741Z,26.20
2023-08-06T06:07:00.572Z,26.18
2023-08-06T06:09:51.072Z,26.15
2023-08-06T06:12:41.889Z,26.17
2023-08-06T06:15:30.853Z,26.14
2023-08-06T06:18:19.694Z,26.14
2023-08-06T06:21:08.891Z,26.18
2023-08-06T06:23:58.002Z,26.18
2023-08-06T06:26:48.455Z,26.15
2023-08-06T06:29:37.377Z,26.19
2023-08-06T06:32:26.708Z,26.20
2023-08-06T06:35:15.682Z,26.16
2023-08-06T06:38:04.799Z,26.16
2023-08-06T06:40:57.489Z,26.11
2023-08-06T06:43:47.897Z,26.17
2023-08-06T06:46:37.463Z,26.16
2023-08-06T06:49:26.664Z,26.09
2023-08-06T06:52:15.635Z,26.13
2023-08-06T06:55:05.095Z,26.06
2023-08-06T06:57:53.780Z,26.10
2023-08-06T07:00:43.796Z,26.12
2023-08-06T07:03:32.560Z,26.07
2023-08-06T07:06:21.255Z,26.00
2023-08-06T07:09:09.897Z,26.02
2023-08-06T07:11:58.601Z,26.01
2023-08-06T07:14:47.208Z,25.99
2023-08-06T07:17:37.302Z,26.06
2023-08-06T07:20:26.218Z,25.89
2023-08-06T07:23:14.834Z,25.93
2023-08-06T07:26:03.480Z,25.79
2023-08-06T07:28:52.159Z,25.84
2023-08-06T07:31:40.803Z,25.81
2023-08-06T07:34:30.863Z,25.84
2023-08-06T07:37:19.475Z,25.76
2023-08-06T07:40:09.737Z,25.80
2023-08-06T07:42:58.504Z,25.82
2023-08-06T07:45:47.128Z,25.76
2023-08-06T07:48:36.003Z,25.73
2023-08-06T07:51:26.197Z,25.67
2023-08-06T07:54:15.097Z,25.59
2023-08-06T07:57:04.088Z,25.52
2023-08-06T07:59:54.671Z,25.51
2023-08-06T08:02:44.195Z,25.50
2023-08-06T08:05:33.768Z,25.45
2023-08-06T08:08:24.082Z,25.45
2023-08-06T08:11:13.048Z,25.41
2023-08-06T08:14:02.552Z,25.39
2023-08-06T08:16:51.523Z,25.46
2023-08-06T08:19:44.764Z,25.36
2023-08-06T08:22:33.826Z,25.33
2023-08-06T08:25:23.927Z,25.32
2023-08-06T08:28:12.623Z,25.30
2023-08-06T08:31:01.364Z,25.23
2023-08-06T08:33:50.824Z,25.24
2023-08-06T08:36:41.067Z,25.33
2023-08-06T08:39:29.751Z,25.44
2023-08-06T08:42:19.818Z,25.44
2023-08-06T08:45:15.751Z,25.52
2023-08-06T08:48:04.670Z,25.52
2023-08-06T08:50:53.485Z,25.60
2023-08-06T08:53:43.291Z,25.56
2023-08-06T08:56:32.043Z,25.63
2023-08-06T08:59:23.593Z,25.62
2023-08-06T09:02:14.318Z,25.57
2023-08-06T09:05:04.402Z,25.48
2023-08-06T09:07:55.792Z,25.50
2023-08-06T09:10:46.120Z,25.50
2023-08-06T09:13:34.913Z,25.59
2023-08-06T09:16:25.318Z,25.55
2023-08-06T09:19:16.546Z,25.64
2023-08-06T09:22:11.978Z,25.69
2023-08-06T09:25:00.819Z,25.62
2023-08-06T09:27:49.557Z,25.58
2023-08-06T09:30:40.098Z,25.49
2023-08-06T09:33:32.193Z,25.43
2023-08-06T09:36:20.860Z,25.45
2023-08-06T09:39:15.745Z,25.45
2023-08-06T09:42:05.737Z,25.49
2023-08-06T09:44:59.393Z,25.50
2023-08-06T09:47:58.327Z,25.50
2023-08-06T09:50:53.256Z,25.54
2023-08-06T09:53:43.533Z,25.51
2023-08-06T09:56:38.544Z,25.59
2023-08-06T09:59:27.670Z,25.57
2023-08-06T10:02:16.686Z,25.49
2023-08-06T10:05:05.604Z,25.51
2023-08-06T10:07:57.014Z,25.48
2023-08-06T10:10:46.449Z,25.51
2023-08-06T10:13:37.132Z,25.46
2023-08-06T10:16:26.213Z,25.42
2023-08-06T10:19:17.113Z,25.38
2023-08-06T10:22:13.557Z,25.34
2023-08-06T10:25:06.604Z,25.31
2023-08-06T10:27:57.959Z,25.25
2023-08-06T10:30:48.175Z,25.19
2023-08-06T10:33:47.245Z,25.17
2023-08-06T10:36:36.592Z,25.18
2023-08-06T10:39:30.900Z,25.20
2023-08-06T10:42:29.900Z,25.23
2023-08-06T10:45:20.293Z,25.22
2023-08-06T10:48:09.148Z,25.19
2023-08-06T10:50:59.368Z,25.23
2023-08-06T10:53:49.645Z,25.18
2023-08-06T10:56:43.372Z,25.16
2023-08-06T10:59:33.657Z,25.20
2023-08-06T11:02:22.584Z,25.13
2023-08-06T11:05:12.343Z,25.03
2023-08-06T11:08:01.006Z,25.01
2023-08-06T11:11:01.752Z,24.93
2023-08-06T11:13:53.440Z,24.96
2023-08-06T11:16:43.591Z,24.95
2023-08-06T11:19:32.401Z,24.91
2023-08-06T11:22:21.074Z,24.89
2023-08-06T11:25:10.223Z,25.01
2023-08-06T11:27:58.970Z,25.14
2023-08-06T11:30:47.675Z,25.31
2023-08-06T11:33:37.767Z,25.47
2023-08-06T11:36:32.970Z,25.77
2023-08-06T11:39:22.253Z,25.88
2023-08-06T11:42:11.318Z,26.00
2023-08-06T11:45:00.165Z,26.05
2023-08-06T11:47:54.452Z,26.10
2023-08-06T11:50:45.343Z,26.25
2023-08-06T11:53:34.450Z,26.34
2023-08-06T11:56:23.370Z,26.42
2023-08-06T11:59:14.669Z,26.47
2023-08-06T12:02:06.794Z,26.54
2023-08-06T12:05:06.819Z,26.59
2023-08-06T12:07:59.391Z,26.56
2023-08-06T12:10:49.213Z,26.63
2023-08-06T12:13:37.916Z,26.67
2023-08-06T12:16:26.938Z,26.78
2023-08-06T12:19:15.722Z,26.82
2023-08-06T12:22:04.889Z,26.95
2023-08-06T12:24:54.932Z,26.98
2023-08-06T12:27:45.452Z,26.99
2023-08-06T12:30:34.225Z,26.96
2023-08-06T12:33:22.944Z,27.05
2023-08-06T12:36:11.614Z,27.08
2023-08-06T12:39:00.378Z,27.14
2023-08-06T12:41:50.474Z,27.16
2023-08-06T12:44:39.241Z,27.15
2023-08-06T12:47:28.072Z,27.24
2023-08-06T12:50:18.351Z,27.30
2023-08-06T12:53:07.198Z,27.29
2023-08-06T12:55:56.008Z,27.32
2023-08-06T12:58:48.890Z,27.09
2023-08-06T13:01:37.748Z,27.08
2023-08-06T13:04:26.693Z,27.00
2023-08-06T13:07:15.534Z,26.88
2023-08-06T13:10:05.150Z,26.96
2023-08-06T13:12:53.915Z,27.02
2023-08-06T13:15:44.068Z,27.00
2023-08-06T13:18:32.885Z,27.05
2023-08-06T13:21:21.596Z,27.07
2023-08-06T13:24:10.621Z,26.94
2023-08-06T13:26:59.590Z,26.93
2023-08-06T13:29:48.630Z,26.93
2023-08-06T13:32:39.021Z,26.94
2023-08-06T13:35:27.910Z,26.98
2023-08-06T13:38:16.749Z,27.00
2023-08-06T13:41:06.662Z,27.05
2023-08-06T13:43:55.331Z,26.93
2023-08-06T13:46:45.070Z,26.93
2023-08-06T13:49:39.875Z,26.83
2023-08-06T13:52:29.684Z,26.93
2023-08-06T13:55:18.350Z,27.01
2023-08-06T13:58:06.933Z,27.02
2023-08-06T14:00:56.612Z,27.02
2023-08-06T14:03:45.407Z,27.14
2023-08-06T14:06:35.667Z,27.11
2023-08-06T14:09:24.539Z,27.09
2023-08-06T14:12:13.531Z,27.08
2023-08-06T14:15:03.078Z,27.08
2023-08-06T14:17:51.901Z,27.07
2023-08-06T14:20:41.059Z,27.00
2023-08-06T14:23:31.159Z,27.01
2023-08-06T14:26:19.878Z,26.86
2023-08-06T14:29:08.937Z,26.95
2023-08-06T14:31:57.764Z,27.05
2023-08-06T14:34:47.086Z,26.97
2023-08-06T14:37:36.468Z,26.95
2023-08-06T14:40:29.685Z,26.98
2023-08-06T14:43:18.532Z,27.00
2023-08-06T14:46:07.242Z,26.79
2023-08-06T14:48:56.017Z,27.01
2023-08-06T14:51:44.709Z,27.02
2023-08-06T14:54:33.496Z,27.18
2023-08-06T14:57:28.857Z,27.14
2023-08-06T15:00:17.789Z,27.22
2023-08-06T15:03:06.452Z,27.22
2023-08-06T15:05:55.159Z,27.25
2023-08-06T15:08:47.805Z,27.02
2023-08-06T15:11:36.676Z,26.93
2023-08-06T15:14:26.850Z,26.89
2023-08-06T15:17:15.777Z,26.94
2023-08-06T15:20:04.633Z,27.16
2023-08-06T15:22:53.535Z,27.28
2023-08-06T15:25:42.107Z,27.49
2023-08-06T15:28:30.944Z,27.55
2023-08-06T15:31:23.491Z,27.59
2023-08-06T15:34:12.237Z,27.60
2023-08-06T15:37:00.867Z,27.64
2023-08-06T15:39:49.571Z,27.67
2023-08-06T15:42:38.212Z,27.60
2023-08-06T15:45:28.014Z,27.72
2023-08-06T15:48:18.027Z,27.71
2023-08-06T15:51:06.729Z,27.54
2023-08-06T15:53:55.449Z,27.57
2023-08-06T15:56:44.408Z,27.67
2023-08-06T15:59:34.346Z,27.67
2023-08-06T16:02:25.216Z,27.72
2023-08-06T16:05:15.477Z,27.75
2023-08-06T16:08:06.403Z,27.75
2023-08-06T16:10:55.086Z,27.76
2023-08-06T16:13:44.886Z,27.81
2023-08-06T16:16:33.893Z,27.70
2023-08-06T16:19:22.614Z,27.86
2023-08-06T16:22:12.856Z,27.92
2023-08-06T16:25:01.508Z,27.82
2023-08-06T16:27:50.167Z,27.38
2023-08-06T16:30:38.793Z,27.28
2023-08-06T16:33:27.491Z,27.22
2023-08-06T16:36:16.286Z,27.15
2023-08-06T16:39:06.352Z,27.21
2023-08-06T16:41:55.331Z,27.33
2023-08-06T16:44:43.974Z,27.31
2023-08-06T16:47:32.770Z,27.40
2023-08-06T16:50:21.359Z,27.20
2023-08-06T16:53:10.038Z,27.30
2023-08-06T16:56:02.046Z,27.38
2023-08-06T16:58:50.826Z,27.41
2023-08-06T17:01:40.718Z,27.50
2023-08-06T17:04:29.536Z,27.70
2023-08-06T17:07:18.302Z,27.76
2023-08-06T17:10:08.016Z,27.77
2023-08-06T17:13:06.172Z,27.77
2023-08-06T17:16:06.941Z,27.59
2023-08-06T17:18:55.574Z,27.53
2023-08-06T17:21:44.205Z,27.59
2023-08-06T17:24:35.210Z,27.42
2023-08-06T17:27:24.758Z,27.52
2023-08-06T17:30:14.857Z,27.60
2023-08-06T17:33:03.702Z,27.69
2023-08-06T17:35:54.534Z,27.66
2023-08-06T17:38:43.385Z,27.66
2023-08-06T17:41:31.981Z,27.74
2023-08-06T17:44:20.575Z,27.70
2023-08-06T17:47:17.544Z,27.72
2023-08-06T17:50:12.270Z,27.72
2023-08-06T17:53:00.930Z,27.66
2023-08-06T17:55:49.987Z,27.61
2023-08-06T17:58:38.652Z,27.49
2023-08-06T18:01:27.457Z,27.72
2023-08-06T18:04:17.541Z,27.81
2023-08-06T18:07:06.880Z,27.91
2023-08-06T18:09:55.517Z,27.97
2023-08-06T18:12:44.392Z,28.03
2023-08-06T18:15:33.052Z,28.04
2023-08-06T18:18:21.724Z,28.02
2023-08-06T18:21:12.729Z,28.07
2023-08-06T18:24:02.369Z,28.11
2023-08-06T18:26:50.986Z,28.11
2023-08-06T18:29:39.607Z,28.13
2023-08-06T18:32:28.287Z,28.11
2023-08-06T18:35:17.251Z,28.08
2023-08-06T18:38:08.195Z,28.15
2023-08-06T18:40:59.723Z,27.95
2023-08-06T18:43:49.461Z,27.99
2023-08-06T18:46:38.245Z,27.94
2023-08-06T18:49:27.169Z,27.95
2023-08-06T18:52:15.816Z,27.94
2023-08-06T18:55:06.386Z,27.88
2023-08-06T18:57:55.028Z,27.84
2023-08-06T19:00:43.858Z,27.74
2023-08-06T19:03:32.864Z,27.73
2023-08-06T19:06:21.764Z,27.76
2023-08-06T19:09:10.421Z,27.73
2023-08-06T19:12:00.474Z,27.71
2023-08-06T19:14:50.062Z,27.74
2023-08-06T19:17:38.749Z,27.71
2023-08-06T19:20:27.419Z,27.72
2023-08-06T19:23:20.828Z,27.65
2023-08-06T19:26:09.503Z,27.64
2023-08-06T19:29:00.122Z,27.57
2023-08-06T19:32:05.144Z,27.58
2023-08-06T19:34:54.824Z,27.59
2023-08-06T19:37:43.630Z,27.60
2023-08-06T19:40:32.315Z,27.58
2023-08-06T19:43:20.983Z,27.57
2023-08-06T19:46:11.201Z,27.55
2023-08-06T19:49:02.357Z,27.51
2023-08-06T19:51:51.171Z,27.53
2023-08-06T19:54:39.862Z,27.47
2023-08-06T19:57:28.478Z,27.50
2023-08-06T20:00:17.857Z,27.47
2023-08-06T20:03:09.264Z,27.47
2023-08-06T20:05:57.992Z,27.47
2023-08-06T20:08:46.689Z,27.49
2023-08-06T20:11:35.384Z,27.45
2023-08-06T20:14:24.069Z,27.39
2023-08-06T20:17:12.678Z,27.31
2023-08-06T20:20:02.700Z,27.18
2023-08-06T20:22:51.311Z,27.13
2023-08-06T20:25:39.967Z,27.08
2023-08-06T20:28:29.082Z,26.99
2023-08-06T20:31:17.821Z,26.95
2023-08-06T20:34:06.505Z,26.86
2023-08-06T20:36:57.487Z,26.82
2023-08-06T20:39:46.180Z,26.86
2023-08-06T20:42:34.852Z,26.77
2023-08-06T20:45:23.573Z,26.76
2023-08-06T20:48:12.246Z,26.77
2023-08-06T20:51:00.950Z,26.74
2023-08-06T20:53:50.998Z,26.69
2023-08-06T20:56:39.772Z,26.66
2023-08-06T20:59:30.133Z,26.58
2023-08-06T21:02:19.796Z,26.51
2023-08-06T21:05:09.321Z,26.45
2023-08-06T21:07:58.092Z,26.38
2023-08-06T21:10:49.506Z,26.36
2023-08-06T21:13:38.416Z,26.33
2023-08-06T21:16:27.917Z,26.31
2023-08-06T21:19:16.598Z,26.31
2023-08-06T21:22:07.159Z,26.27
2023-08-06T21:24:55.819Z,26.31
2023-08-06T21:27:48.762Z,26.24
2023-08-06T21:30:37.644Z,26.19
2023-08-06T21:33:27.264Z,26.16
2023-08-06T21:36:18.429Z,26.13
2023-08-06T21:39:07.094Z,26.14
2023-08-06T21:41:55.925Z,26.10
2023-08-06T21:44:46.253Z,26.17
2023-08-06T21:47:35.146Z,26.13
2023-08-06T21:50:23.844Z,26.02
2023-08-06T21:53:12.530Z,25.95
2023-08-06T21:56:06.029Z,25.89
2023-08-06T21:58:59.140Z,25.84
2023-08-06T22:01:49.341Z,25.81
2023-08-06T22:04:38.057Z,25.79
2023-08-06T22:07:26.804Z,25.82
2023-08-06T22:10:15.475Z,25.77
2023-08-06T22:13:04.121Z,25.72
2023-08-06T22:15:52.832Z,25.67
2023-08-06T22:18:42.996Z,25.66
2023-08-06T22:21:32.242Z,25.57
2023-08-06T22:24:20.912Z,25.62
2023-08-06T22:27:09.618Z,25.54
2023-08-06T22:29:58.226Z,25.52
2023-08-06T22:32:47.613Z,25.53
2023-08-06T22:35:39.102Z,25.56
2023-08-06T22:38:28.668Z,25.52
2023-08-06T22:41:17.364Z,25.49
2023-08-06T22:44:06.391Z,25.49
2023-08-06T22:46:55.018Z,25.46
2023-08-06T22:49:44.650Z,25.41
2023-08-06T22:52:34.728Z,25.38
2023-08-06T22:55:48.136Z,25.37
2023-08-06T22:58:32.178Z,25.35
2023-08-06T23:01:20.906Z,25.33
2023-08-06T23:04:09.832Z,25.29
2023-08-06T23:06:58.551Z,25.21
2023-08-06T23:09:48.568Z,25.17
2023-08-06T23:12:37.366Z,25.11
2023-08-06T23:15:26.015Z,25.10
2023-08-06T23:18:14.658Z,25.03
2023-08-06T23:21:03.381Z,24.99
2023-08-06T23:23:52.057Z,24.91
2023-08-06T23:26:42.144Z,24.85
2023-08-06T23:29:30.745Z,24.79
2023-08-06T23:32:19.352Z,24.78
2023-08-06T23:35:08.276Z,24.74
2023-08-06T23:37:56.940Z,24.67
2023-08-06T23:40:45.742Z,24.62
2023-08-06T23:43:36.026Z,24.59
2023-08-06T23:46:25.673Z,24.57
2023-08-06T23:49:15.025Z,24.53
2023-08-06T23:52:03.713Z,24.47
2023-08-06T23:54:52.528Z,24.46
2023-08-06T23:57:41.165Z,24.39
